Time;durP1;ratioP1;P1;durP2;ratioP2;P2;SDS_P1;SDS_P2;PMS_P1;PMS_P2;Temp;Humidity;BMP_temperature;BMP_pressure;BME280_temperature;BME280_humidity;BME280_pressure;Samples;Min_cycle;Max_cycle;Signal;HPM_P1;HPM_P2
2022/12/16 00:01:21;;;;;;;;;48.25;38.50;;;;;2.64;60.98;100552.03;5055241;28;45497;-75
2022/12/16 00:03:49;;;;;;;;;32.25;27.75;;;;;3.01;61.34;100603.66;5069803;28;45573;-75
2022/12/16 00:06:15;;;;;;;;;32.25;32.25;;;;;3.01;61.01;100614.19;5073603;27;45413;-75
2022/12/16 00:08:41;;;;;;;;;37.50;36.00;;;;;3.01;61.00;100608.91;5073395;27;46786;-76
2022/12/16 00:11:07;;;;;;;;;42.25;37.50;;;;;2.97;60.50;100617.81;5073746;27;45510;-76
2022/12/16 00:13:34;;;;;;;;;33.00;32.25;;;;;3.00;60.83;100622.16;5074343;27;45554;-76
2022/12/16 00:16:07;;;;;;;;;37.00;36.75;;;;;2.76;60.94;100581.56;5073761;27;45323;-76
2022/12/16 00:18:33;;;;;;;;;31.75;27.25;;;;;3.00;60.96;100623.00;5073864;27;46424;-76
2022/12/16 00:20:59;;;;;;;;;41.00;37.25;;;;;2.99;61.30;100620.41;5073837;28;45598;-76
2022/12/16 00:23:24;;;;;;;;;48.25;38.75;;;;;2.95;60.87;100606.44;5074403;27;45388;-76
2022/12/16 00:25:50;;;;;;;;;44.50;35.00;;;;;3.08;60.54;100624.53;5074051;27;45344;-75
2022/12/16 00:28:17;;;;;;;;;50.75;40.50;;;;;3.03;61.05;100628.16;5073889;27;46369;-76
2022/12/16 00:30:43;;;;;;;;;50.00;37.50;;;;;2.78;61.35;100595.53;5074898;27;45372;-75
2022/12/16 00:33:09;;;;;;;;;38.00;37.00;;;;;2.98;61.07;100624.84;5075329;27;45421;-75
2022/12/16 00:35:34;;;;;;;;;41.00;36.50;;;;;2.91;61.76;100639.06;5074304;27;45386;-75
2022/12/16 00:38:00;;;;;;;;;48.75;43.00;;;;;2.82;62.67;100631.44;5074124;27;45448;-76
2022/12/16 00:40:26;;;;;;;;;50.50;43.75;;;;;2.72;62.43;100637.91;5073443;27;45504;-76
2022/12/16 00:42:51;;;;;;;;;52.25;40.00;;;;;2.80;62.26;100628.84;5073751;27;45584;-75
2022/12/16 00:45:17;;;;;;;;;57.50;42.75;;;;;2.84;62.45;100632.28;5072568;28;45614;-76
2022/12/16 00:47:42;;;;;;;;;44.50;39.75;;;;;2.88;62.10;100626.00;5073321;27;45454;-76
2022/12/16 00:50:08;;;;;;;;;47.25;42.00;;;;;2.60;62.34;100584.63;5073578;27;45471;-76
2022/12/16 00:52:33;;;;;;;;;44.00;39.25;;;;;2.84;61.97;100633.13;5073247;27;45406;-75
2022/12/16 00:54:59;;;;;;;;;46.50;35.50;;;;;2.84;61.01;100630.47;5073571;27;45397;-75
2022/12/16 00:57:24;;;;;;;;;46.75;37.75;;;;;2.78;61.44;100643.84;5072185;28;47746;-75
2022/12/16 00:59:50;;;;;;;;;47.25;41.25;;;;;2.06;61.81;100532.66;5071960;28;45484;-75
2022/12/16 01:02:15;;;;;;;;;43.50;40.75;;;;;2.76;61.43;100640.38;5073157;27;45756;-75
2022/12/16 01:04:40;;;;;;;;;45.00;38.25;;;;;2.57;63.12;100660.25;5074911;28;45343;-75
2022/12/16 01:07:06;;;;;;;;;45.75;41.75;;;;;2.55;62.56;100647.13;5075234;28;45465;-76
2022/12/16 01:09:31;;;;;;;;;53.25;43.75;;;;;2.54;63.20;100663.84;5076879;28;45662;-74
2022/12/16 01:11:56;;;;;;;;;44.25;40.50;;;;;1.69;63.72;100529.22;5076736;28;45437;-75
2022/12/16 01:14:22;;;;;;;;;49.75;43.75;;;;;2.53;63.13;100659.47;5075984;28;45704;-75
2022/12/16 01:16:47;;;;;;;;;56.50;44.25;;;;;1.99;63.32;100584.56;5076038;27;46380;-75
2022/12/16 01:19:13;;;;;;;;;58.25;47.25;;;;;2.47;63.46;100680.69;5076300;27;45652;-75
2022/12/16 01:21:38;;;;;;;;;52.75;43.00;;;;;2.13;64.02;100624.56;5076612;27;45377;-75
2022/12/16 01:24:04;;;;;;;;;52.50;42.75;;;;;2.11;63.76;100628.13;5076821;27;45365;-75
2022/12/16 01:26:30;;;;;;;;;54.75;45.25;;;;;2.51;63.54;100677.06;5076050;27;45341;-75
2022/12/16 01:28:56;;;;;;;;;55.00;43.00;;;;;2.45;63.96;100688.63;5074975;28;45389;-75
2022/12/16 01:31:23;;;;;;;;;56.75;43.00;;;;;2.30;63.95;100662.72;5076313;27;45402;-75
2022/12/16 01:33:49;;;;;;;;;51.25;45.25;;;;;2.34;63.67;100688.91;5076440;27;45700;-75
2022/12/16 01:36:15;;;;;;;;;53.50;42.25;;;;;2.41;63.86;100697.53;5076415;28;45961;-75
2022/12/16 01:38:43;;;;;;;;;50.75;45.00;;;;;2.38;63.70;100715.19;5076236;28;45361;-75
2022/12/16 01:41:09;;;;;;;;;49.25;42.00;;;;;2.23;63.57;100693.59;5076561;27;45511;-75
2022/12/16 01:43:37;;;;;;;;;48.25;44.00;;;;;2.29;63.81;100718.91;5076845;27;45437;-75
2022/12/16 01:46:08;;;;;;;;;54.75;47.00;;;;;2.33;63.26;100716.13;5076083;27;46092;-75
2022/12/16 01:49:04;;;;;;;;;55.25;47.25;;;;;2.36;63.95;100720.47;5075993;27;45747;-75
2022/12/16 01:51:37;;;;;;;;;51.00;43.00;;;;;1.24;63.55;100546.13;5075893;28;45523;-75
2022/12/16 01:54:17;;;;;;;;;47.25;40.00;;;;;2.40;63.66;100722.13;5074977;28;45400;-75
2022/12/16 01:56:48;;;;;;;;;62.00;49.50;;;;;2.27;63.53;100708.41;5074681;28;47542;-75
2022/12/16 01:59:17;;;;;;;;;55.50;42.75;;;;;2.39;63.37;100724.78;5075429;28;45384;-75
2022/12/16 02:01:42;;;;;;;;;57.00;45.00;;;;;2.38;63.24;100742.38;5076209;27;45346;-76
2022/12/16 02:04:08;;;;;;;;;49.50;42.00;;;;;2.06;63.26;100695.81;5076216;27;45369;-75
2022/12/16 02:06:33;;;;;;;;;62.75;48.75;;;;;2.35;63.08;100745.94;5075695;27;46309;-75
2022/12/16 02:09:05;;;;;;;;;63.25;49.25;;;;;2.39;62.60;100757.28;5075571;28;45464;-75
2022/12/16 02:11:55;;;;;;;;;57.00;46.00;;;;;2.40;63.05;100750.22;5074633;27;45437;-75
2022/12/16 02:14:42;;;;;;;;;57.00;46.75;;;;;2.35;61.93;100751.22;5075289;28;45353;-75
2022/12/16 02:17:52;;;;;;;;;60.00;48.50;;;;;2.33;62.24;100745.09;5075703;28;45655;-75
2022/12/16 02:20:29;;;;;;;;;47.00;43.00;;;;;2.32;62.28;100740.75;5012912;28;45643;-75
2022/12/16 02:23:03;;;;;;;;;52.50;44.00;;;;;2.27;62.97;100740.00;5012980;28;45522;-75
2022/12/16 02:26:06;;;;;;;;;55.75;46.00;;;;;2.17;63.34;100742.00;4996228;28;45451;-75
2022/12/16 02:28:52;;;;;;;;;44.25;39.25;;;;;2.19;63.59;100745.44;4972504;28;46891;-74
2022/12/16 02:32:10;;;;;;;;;60.00;47.50;;;;;2.21;63.10;100737.50;4973185;28;45518;-74
2022/12/16 02:34:38;;;;;;;;;60.00;47.25;;;;;2.24;62.59;100744.47;4972940;28;45498;-73
2022/12/16 02:37:41;;;;;;;;;60.75;48.75;;;;;2.24;62.96;100742.72;4973232;28;45452;-73
2022/12/16 02:40:26;;;;;;;;;64.50;48.75;;;;;2.26;63.39;100740.91;4965747;28;45530;-74
2022/12/16 02:43:11;;;;;;;;;59.25;49.25;;;;;1.95;63.26;100690.81;4972300;28;45489;-73
2022/12/16 02:45:38;;;;;;;;;56.00;47.50;;;;;1.96;63.73;100689.91;4956725;28;45338;-74
2022/12/16 02:48:04;;;;;;;;;60.25;47.00;;;;;2.22;64.03;100759.47;4973010;28;45405;-73
2022/12/16 02:50:38;;;;;;;;;59.25;47.75;;;;;2.21;63.94;100757.72;4972610;28;45568;-74
2022/12/16 02:53:05;;;;;;;;;49.25;44.50;;;;;1.72;64.22;100683.47;4972975;28;45595;-74
2022/12/16 02:55:58;;;;;;;;;62.50;50.00;;;;;2.22;64.63;100755.03;4973008;28;45485;-74
2022/12/16 02:58:32;;;;;;;;;49.25;42.75;;;;;2.19;64.17;100752.50;4992175;28;45642;-74
2022/12/16 03:01:18;;;;;;;;;61.50;47.25;;;;;2.09;65.45;100750.97;4992504;28;46278;-73
2022/12/16 03:03:48;;;;;;;;;52.25;47.75;;;;;2.13;64.45;100757.91;4975803;28;45631;-74
2022/12/16 03:06:17;;;;;;;;;54.50;44.75;;;;;2.03;64.44;100752.00;5029167;28;45462;-73
2022/12/16 03:08:49;;;;;;;;;59.00;45.25;;;;;2.12;63.99;100756.16;5031881;28;45420;-74
2022/12/16 03:11:14;;;;;;;;;47.50;42.75;;;;;1.95;64.93;100717.97;5052369;28;46002;-74
2022/12/16 03:13:45;;;;;;;;;58.50;48.25;;;;;0.91;65.24;100556.50;5054869;28;45626;-74
2022/12/16 03:16:15;;;;;;;;;56.00;46.50;;;;;2.15;64.73;100764.00;5054765;28;45484;-73
2022/12/16 03:18:43;;;;;;;;;55.25;44.25;;;;;1.89;64.70;100731.28;5055035;28;45374;-73
2022/12/16 03:21:09;;;;;;;;;59.25;50.75;;;;;2.01;64.95;100751.16;5073302;28;45448;-73
2022/12/16 03:23:44;;;;;;;;;60.00;47.75;;;;;2.15;65.34;100764.00;5075260;27;45365;-73
2022/12/16 03:26:29;;;;;;;;;51.00;43.00;;;;;2.18;64.73;100769.19;5073995;27;45332;-73
2022/12/16 03:29:04;;;;;;;;;59.75;49.25;;;;;2.17;64.76;100773.59;5057252;28;45747;-74
2022/12/16 03:31:54;;;;;;;;;62.75;49.00;;;;;2.14;64.69;100772.78;5070822;27;48445;-74
2022/12/16 03:34:49;;;;;;;;;52.75;46.25;;;;;2.16;65.04;100781.50;5075222;27;45492;-74
2022/12/16 03:37:15;;;;;;;;;51.00;41.75;;;;;1.93;67.02;100785.56;5074499;28;45395;-74
2022/12/16 03:39:45;;;;;;;;;56.25;44.75;;;;;0.58;67.30;100574.72;5074011;27;45389;-74
2022/12/16 03:42:14;;;;;;;;;54.25;43.00;;;;;1.80;66.12;100765.69;5074066;27;47301;-74
2022/12/16 03:44:41;;;;;;;;;43.75;37.50;;;;;1.91;66.85;100789.97;5074378;28;45496;-74
2022/12/16 03:47:06;;;;;;;;;56.00;45.75;;;;;1.84;67.12;100793.66;5074448;27;45350;-74
2022/12/16 03:49:31;;;;;;;;;43.75;39.75;;;;;1.46;66.68;100717.34;5074390;27;45451;-74
2022/12/16 03:51:57;;;;;;;;;48.00;42.25;;;;;1.95;65.98;100782.88;5074048;27;45376;-74
2022/12/16 03:54:23;;;;;;;;;55.00;44.50;;;;;1.89;66.94;100794.41;5073947;27;45451;-74
2022/12/16 03:56:48;;;;;;;;;46.25;40.50;;;;;1.27;66.78;100674.81;5073986;27;45400;-74
2022/12/16 03:59:14;;;;;;;;;53.25;44.75;;;;;1.77;66.29;100744.69;5072853;28;45386;-74
2022/12/16 04:01:40;;;;;;;;;52.50;44.00;;;;;1.80;65.67;100749.91;5072682;28;47360;-74
2022/12/16 04:04:05;;;;;;;;;58.75;45.00;;;;;2.07;65.91;100801.03;5073301;27;45507;-74
2022/12/16 04:06:31;;;;;;;;;64.00;51.50;;;;;2.08;66.95;100793.97;5073697;27;45507;-74
2022/12/16 04:08:56;;;;;;;;;59.25;48.25;;;;;1.92;67.37;100793.50;5073738;28;45496;-74
2022/12/16 04:25:19;;;;;;;;;61.25;45.00;;;;;1.78;66.46;100781.50;5073666;28;45367;-74
2022/12/16 04:27:47;;;;;;;;;52.25;42.50;;;;;1.58;66.59;100741.63;5073620;28;45402;-73
2022/12/16 04:30:17;;;;;;;;;57.50;47.75;;;;;1.02;66.71;100655.22;5073699;27;45426;-74
